Time;durP1;ratioP1;P1;durP2;ratioP2;P2;SDS_P1;SDS_P2;PMS_P1;PMS_P2;Temp;Humidity;BMP_temperature;BMP_pressure;BME280_temperature;BME280_humidity;BME280_pressure;Samples;Min_cycle;Max_cycle;Signal;HPM_P1;HPM_P2
2023/08/31 00:02:53;;;;;;;2.50;2.30;;;24.30;69.90;;;;;;222694;1257;22526;-56
2023/08/31 00:07:56;;;;;;;2.50;2.30;;;24.30;69.70;;;;;;222387;1256;24276;-58
2023/08/31 00:12:59;;;;;;;2.10;1.90;;;24.30;69.70;;;;;;222533;1264;23822;-57
2023/08/31 00:18:06;;;;;;;2.10;1.90;;;24.30;69.80;;;;;;222210;1247;300644;-57
2023/08/31 00:23:08;;;;;;;2.30;2.10;;;24.20;69.70;;;;;;222417;1268;24256;-57
2023/08/31 00:28:18;;;;;;;2.50;2.30;;;24.10;69.80;;;;;;222873;1268;24203;-58
2023/08/31 00:33:21;;;;;;;4.30;2.20;;;24.20;69.80;;;;;;222696;1263;22549;-57
2023/08/31 00:38:25;;;;;;;2.30;1.90;;;24.10;70.00;;;;;;222473;1260;22614;-59
2023/08/31 00:43:28;;;;;;;2.40;1.90;;;24.10;70.00;;;;;;222725;1261;24250;-58
2023/08/31 00:48:31;;;;;;;1.80;1.70;;;24.10;70.10;;;;;;222632;1266;22534;-57
2023/08/31 00:53:35;;;;;;;2.40;2.00;;;24.10;70.00;;;;;;222372;1260;22546;-58
2023/08/31 00:58:38;;;;;;;1.70;1.60;;;24.10;70.10;;;;;;222627;1261;22771;-60
2023/08/31 01:04:08;;;;;;;2.20;2.00;;;24.10;70.00;;;;;;222815;1261;22507;-57
2023/08/31 01:09:23;;;;;;;2.00;1.90;;;24.10;70.10;;;;;;222618;1266;23913;-58
2023/08/31 01:14:34;;;;;;;2.10;2.00;;;24.10;70.00;;;;;;222798;1263;22665;-59
2023/08/31 01:19:51;;;;;;;2.10;1.90;;;24.10;69.90;;;;;;222752;1263;22510;-58
2023/08/31 01:25:04;;;;;;;2.20;2.10;;;24.00;70.60;;;;;;222284;1266;25376;-59
2023/08/31 01:30:09;;;;;;;2.30;1.90;;;24.00;70.50;;;;;;222477;1263;22524;-58
2023/08/31 01:35:16;;;;;;;2.20;1.90;;;24.10;70.30;;;;;;222427;1262;22524;-57
2023/08/31 01:40:36;;;;;;;4.00;2.00;;;24.10;69.90;;;;;;222850;1268;22695;-57
2023/08/31 01:45:41;;;;;;;2.00;1.90;;;24.10;70.00;;;;;;222723;1263;23889;-57
2023/08/31 01:50:56;;;;;;;2.90;1.90;;;24.10;70.60;;;;;;222643;1262;22521;-56
2023/08/31 01:55:58;;;;;;;;;;;24.10;69.90;;;;;;225020;1260;22620;-57
2023/08/31 02:01:03;;;;;;;2.20;2.00;;;24.10;69.60;;;;;;224960;1263;22672;-56
2023/08/31 02:06:06;;;;;;;1.80;1.60;;;24.20;69.40;;;;;;222605;1260;23913;-57
2023/08/31 02:11:08;;;;;;;2.10;2.00;;;24.10;69.50;;;;;;223293;1263;23919;-57
2023/08/31 02:16:11;;;;;;;2.20;1.90;;;24.00;69.90;;;;;;222624;1267;22651;-57
2023/08/31 02:21:20;;;;;;;3.90;1.90;;;23.90;70.10;;;;;;222496;1263;22507;-59
2023/08/31 02:26:22;;;;;;;3.10;2.50;;;23.90;71.00;;;;;;222477;1261;23903;-58
2023/08/31 02:31:25;;;;;;;3.20;2.00;;;23.90;70.00;;;;;;222399;1254;22573;-58
2023/08/31 02:36:29;;;;;;;2.60;2.20;;;23.90;70.00;;;;;;223017;1263;22632;-58
2023/08/31 02:41:32;;;;;;;2.70;2.40;;;23.90;69.90;;;;;;222556;1255;23912;-58
2023/08/31 02:46:34;;;;;;;1.80;1.70;;;23.80;69.90;;;;;;222646;1266;22530;-57
2023/08/31 02:51:40;;;;;;;2.50;2.30;;;23.80;70.20;;;;;;222616;1247;22655;-58
2023/08/31 02:56:43;;;;;;;2.10;2.00;;;23.80;70.10;;;;;;222735;1263;22514;-58
2023/08/31 03:01:47;;;;;;;2.00;1.90;;;23.90;70.00;;;;;;222499;1260;22504;-57
2023/08/31 03:06:50;;;;;;;2.20;1.90;;;23.80;70.10;;;;;;222447;1268;22538;-58
2023/08/31 03:11:52;;;;;;;2.50;2.30;;;23.80;70.30;;;;;;222331;1266;23924;-58
2023/08/31 03:16:56;;;;;;;2.20;2.10;;;23.80;69.90;;;;;;222621;1266;22563;-58
2023/08/31 03:22:02;;;;;;;4.50;2.00;;;23.80;70.10;;;;;;223150;1260;22548;-58
2023/08/31 03:27:05;;;;;;;4.30;2.10;;;23.70;70.30;;;;;;222559;1256;23892;-59
2023/08/31 03:32:08;;;;;;;2.30;2.10;;;23.80;70.40;;;;;;222357;1260;22525;-58
2023/08/31 03:37:19;;;;;;;2.40;1.90;;;23.70;70.00;;;;;;222559;1265;24386;-59
2023/08/31 03:42:24;;;;;;;3.80;1.90;;;23.70;69.80;;;;;;222537;1256;22567;-58
2023/08/31 03:47:26;;;;;;;3.00;1.80;;;23.70;70.20;;;;;;222482;1250;24899;-57
2023/08/31 03:52:30;;;;;;;2.20;2.00;;;23.70;70.10;;;;;;221956;1265;22711;-58
2023/08/31 03:57:33;;;;;;;2.10;2.00;;;23.70;70.00;;;;;;223000;1263;22633;-59
2023/08/31 04:02:46;;;;;;;3.00;1.60;;;23.70;69.90;;;;;;222501;1263;25292;-57
2023/08/31 04:07:53;;;;;;;2.00;1.90;;;23.70;70.10;;;;;;222388;1263;24189;-57
2023/08/31 04:12:56;;;;;;;2.70;2.00;;;23.70;69.50;;;;;;222385;1268;24018;-57
2023/08/31 04:18:03;;;;;;;1.80;1.70;;;23.70;69.50;;;;;;222449;1262;24190;-58
2023/08/31 04:23:06;;;;;;;2.10;1.60;;;23.70;70.00;;;;;;222450;1266;23210;-58
2023/08/31 04:28:09;;;;;;;2.10;1.60;;;23.70;69.60;;;;;;222773;1261;22511;-58
2023/08/31 04:33:12;;;;;;;1.80;1.70;;;23.70;69.80;;;;;;222237;1268;22567;-57
2023/08/31 04:38:24;;;;;;;1.50;1.40;;;23.70;69.60;;;;;;222464;1260;24248;-58
2023/08/31 04:43:27;;;;;;;1.70;1.60;;;23.70;70.60;;;;;;222798;1265;22510;-59
2023/08/31 04:48:30;;;;;;;2.40;1.50;;;23.70;69.70;;;;;;222228;1261;22609;-57
2023/08/31 04:53:43;;;;;;;1.90;1.80;;;23.70;69.90;;;;;;222449;1263;24069;-59
2023/08/31 04:58:48;;;;;;;2.30;2.10;;;23.70;70.50;;;;;;222165;1268;22508;-58
2023/08/31 05:03:51;;;;;;;1.40;1.30;;;23.70;69.90;;;;;;221932;1262;22523;-57
2023/08/31 05:08:53;;;;;;;3.10;1.80;;;23.80;70.50;;;;;;222263;1244;24008;-58
2023/08/31 05:13:56;;;;;;;1.80;1.40;;;23.70;70.50;;;;;;222362;1268;23886;-58
2023/08/31 05:18:59;;;;;;;3.40;1.70;;;23.80;69.60;;;;;;222729;1260;24450;-58
2023/08/31 05:24:02;;;;;;;1.70;1.60;;;23.80;69.60;;;;;;222151;1268;22501;-58
2023/08/31 05:29:05;;;;;;;3.30;1.70;;;23.70;69.80;;;;;;222530;1265;22817;-58
2023/08/31 05:34:26;;;;;;;2.30;2.10;;;23.80;70.10;;;;;;222283;1260;22514;-57
2023/08/31 05:39:29;;;;;;;5.70;1.70;;;23.70;70.10;;;;;;222593;1266;24231;-59
2023/08/31 05:44:32;;;;;;;1.70;1.60;;;23.70;70.40;;;;;;222479;1269;24224;-58
2023/08/31 05:49:35;;;;;;;3.60;1.60;;;23.80;70.40;;;;;;222606;1268;22552;-58
2023/08/31 05:54:38;;;;;;;1.80;1.70;;;23.70;70.60;;;;;;222326;1250;24095;-59
2023/08/31 05:59:41;;;;;;;1.90;1.50;;;23.80;70.70;;;;;;222217;1261;24040;-57
2023/08/31 06:04:46;;;;;;;4.20;2.30;;;23.70;70.70;;;;;;222792;1256;23885;-58
2023/08/31 06:09:49;;;;;;;4.20;1.40;;;23.80;70.80;;;;;;222086;1251;22657;-57
2023/08/31 06:14:52;;;;;;;2.80;1.60;;;23.80;70.70;;;;;;222672;1261;22818;-58
2023/08/31 06:19:55;;;;;;;1.60;1.50;;;23.80;70.40;;;;;;222681;1266;22523;-57
2023/08/31 06:24:57;;;;;;;2.00;1.70;;;23.80;70.90;;;;;;222512;1268;22511;-59
2023/08/31 06:30:00;;;;;;;2.70;1.70;;;23.80;70.30;;;;;;222249;1260;22599;-57
2023/08/31 06:35:04;;;;;;;2.30;1.50;;;23.80;70.40;;;;;;222216;1254;22565;-58
2023/08/31 06:40:09;;;;;;;1.90;1.80;;;23.70;70.60;;;;;;222615;1253;26583;-57
2023/08/31 06:45:11;;;;;;;2.30;1.50;;;23.70;70.40;;;;;;222372;1266;22515;-57
2023/08/31 06:50:14;;;;;;;1.90;1.60;;;23.80;70.40;;;;;;222609;1263;22512;-59
2023/08/31 06:55:17;;;;;;;1.60;1.50;;;23.80;70.00;;;;;;222812;1266;22514;-57
2023/08/31 07:00:20;;;;;;;1.50;1.40;;;23.80;70.50;;;;;;222619;1268;22613;-57
2023/08/31 07:05:26;;;;;;;2.60;1.50;;;23.80;70.00;;;;;;222547;1261;24445;-57
2023/08/31 07:10:29;;;;;;;1.90;1.40;;;23.90;69.90;;;;;;222664;1268;22533;-56
2023/08/31 07:15:35;;;;;;;1.70;1.50;;;23.90;70.40;;;;;;222245;1260;24266;-59
2023/08/31 07:20:38;;;;;;;1.50;1.40;;;23.90;69.60;;;;;;222661;1261;22592;-57
2023/08/31 07:25:42;;;;;;;1.70;1.60;;;23.90;70.10;;;;;;221939;1255;22518;-56
2023/08/31 07:30:45;;;;;;;1.90;1.80;;;23.80;69.90;;;;;;222399;1268;22751;-57
2023/08/31 07:35:50;;;;;;;1.90;1.60;;;23.70;70.50;;;;;;222295;1269;22514;-57
2023/08/31 07:41:04;;;;;;;1.90;1.70;;;23.60;70.40;;;;;;222297;1268;25478;-57
2023/08/31 07:46:06;;;;;;;1.80;1.70;;;23.70;71.10;;;;;;222632;1266;22812;-57
2023/08/31 07:51:09;;;;;;;1.80;1.60;;;23.80;72.10;;;;;;222067;1268;22623;-56
2023/08/31 07:56:13;;;;;;;3.20;1.70;;;23.90;71.00;;;;;;222516;1268;22502;-55
2023/08/31 08:01:17;;;;;;;1.70;1.60;;;24.00;70.40;;;;;;222423;1264;25399;-54
2023/08/31 08:06:20;;;;;;;1.70;1.60;;;24.00;70.50;;;;;;222392;1266;22514;-53
2023/08/31 08:11:23;;;;;;;1.60;1.50;;;24.00;70.30;;;;;;222862;1268;24205;-53
2023/08/31 08:16:25;;;;;;;1.30;1.30;;;24.00;69.90;;;;;;222481;1268;22550;-55
2023/08/31 08:21:28;;;;;;;1.40;1.30;;;24.10;69.70;;;;;;222587;1261;24365;-55
2023/08/31 08:26:31;;;;;;;2.10;1.10;;;24.10;69.80;;;;;;222556;1269;23924;-54
2023/08/31 08:31:34;;;;;;;1.50;1.40;;;24.10;69.70;;;;;;222733;1266;22525;-54
2023/08/31 08:36:37;;;;;;;1.60;1.50;;;24.10;69.60;;;;;;222229;1268;22526;-55
2023/08/31 08:41:41;;;;;;;1.70;1.60;;;24.20;69.70;;;;;;222566;1267;22661;-57
2023/08/31 08:46:45;;;;;;;2.60;1.60;;;24.20;69.70;;;;;;223115;1264;23298;-54
2023/08/31 08:51:50;;;;;;;2.40;1.80;;;24.20;69.30;;;;;;222833;1266;25356;-56
2023/08/31 08:56:53;;;;;;;1.80;1.60;;;24.20;69.20;;;;;;222407;1267;24196;-62
2023/08/31 09:01:56;;;;;;;2.90;1.60;;;24.10;69.50;;;;;;222745;1261;22640;-62
2023/08/31 09:06:58;;;;;;;1.80;1.40;;;24.20;69.30;;;;;;222262;1267;25344;-62
2023/08/31 09:12:08;;;;;;;2.90;1.70;;;24.20;69.50;;;;;;222505;1268;24278;-62
2023/08/31 09:17:11;;;;;;;6.10;1.50;;;24.10;70.70;;;;;;222731;1263;25226;-62
2023/08/31 09:22:13;;;;;;;5.60;1.90;;;24.10;70.50;;;;;;222272;1266;24052;-62
2023/08/31 09:27:17;;;;;;;4.50;1.60;;;24.20;70.00;;;;;;222412;1263;23932;-62
2023/08/31 09:32:20;;;;;;;7.60;1.70;;;24.20;70.30;;;;;;222383;1266;24065;-61
2023/08/31 09:37:23;;;;;;;2.20;1.50;;;24.30;70.30;;;;;;222801;1268;24051;-62
2023/08/31 09:42:37;;;;;;;2.10;1.60;;;24.20;70.10;;;;;;222942;1268;22565;-62
2023/08/31 09:47:41;;;;;;;1.60;1.50;;;24.20;70.30;;;;;;222691;1266;25220;-62
2023/08/31 09:52:45;;;;;;;2.00;1.80;;;24.30;70.00;;;;;;222473;1266;22664;-63
2023/08/31 09:57:53;;;;;;;1.50;1.40;;;24.20;70.00;;;;;;222581;1266;25463;-57
2023/08/31 10:03:21;;;;;;;1.40;1.30;;;24.20;69.80;;;;;;222674;1266;24248;-61
2023/08/31 10:08:26;;;;;;;2.80;1.90;;;24.30;69.30;;;;;;222739;1269;22644;-67
2023/08/31 10:13:32;;;;;;;3.50;1.90;;;24.30;69.60;;;;;;222529;1267;24200;-63
2023/08/31 10:18:35;;;;;;;3.30;1.40;;;24.30;70.40;;;;;;222061;1268;22521;-65
2023/08/31 10:23:47;;;;;;;4.10;1.80;;;24.30;71.10;;;;;;222519;1260;23254;-64
2023/08/31 10:28:51;;;;;;;1.80;1.60;;;24.30;70.10;;;;;;222656;1263;22533;-68
2023/08/31 10:34:05;;;;;;;1.80;1.70;;;24.30;69.60;;;;;;222511;1269;22642;-62
2023/08/31 10:46:15;;;;;;;2.40;1.50;;;24.30;69.60;;;;;;222799;1266;22539;-62
2023/08/31 10:51:20;;;;;;;1.90;1.60;;;24.30;69.90;;;;;;222708;1268;22517;-68
2023/08/31 10:56:29;;;;;;;5.70;1.80;;;24.30;69.70;;;;;;222435;1261;24362;-68
2023/08/31 11:01:55;;;;;;;2.60;1.60;;;24.30;69.30;;;;;;222173;1269;22535;-63
2023/08/31 11:07:14;;;;;;;2.40;1.50;;;24.30;69.30;;;;;;222699;1261;22522;-64
2023/08/31 11:12:17;;;;;;;2.30;1.60;;;24.30;68.90;;;;;;222681;1262;24192;-62
2023/08/31 11:17:20;;;;;;;3.00;1.70;;;24.40;69.00;;;;;;222478;1269;22690;-61
2023/08/31 11:22:23;;;;;;;1.80;1.70;;;24.40;68.90;;;;;;222777;1267;24329;-61
2023/08/31 11:27:27;;;;;;;1.60;1.50;;;24.40;69.10;;;;;;222378;1267;25206;-61
2023/08/31 11:32:29;;;;;;;1.60;1.40;;;24.40;68.90;;;;;;222408;1264;22839;-64
2023/08/31 11:37:32;;;;;;;2.80;1.50;;;24.50;68.70;;;;;;222214;1265;22644;-61
2023/08/31 11:42:35;;;;;;;2.20;1.10;;;24.60;68.50;;;;;;222420;1268;25366;-61
2023/08/31 11:47:42;;;;;;;2.00;1.30;;;24.70;68.30;;;;;;222219;1268;22637;-61
2023/08/31 11:52:45;;;;;;;1.70;1.50;;;24.70;68.30;;;;;;222234;1269;22651;-60
2023/08/31 11:57:54;;;;;;;1.40;1.30;;;24.70;68.20;;;;;;222474;1264;25702;-60
2023/08/31 12:03:04;;;;;;;9.90;1.50;;;24.80;68.20;;;;;;222787;1263;24190;-60
2023/08/31 12:08:08;;;;;;;;;;;24.70;68.20;;;;;;222932;1257;25341;-60
2023/08/31 12:13:14;;;;;;;4.70;1.30;;;24.80;68.00;;;;;;222584;1268;25265;-61
2023/08/31 12:18:18;;;;;;;1.50;1.30;;;24.80;68.00;;;;;;222276;1269;183478;-60
2023/08/31 12:23:23;;;;;;;2.70;1.40;;;24.80;68.40;;;;;;222954;1263;22521;-60
2023/08/31 12:28:26;;;;;;;3.40;1.50;;;24.90;68.00;;;;;;222641;1254;22565;-61
2023/08/31 12:33:29;;;;;;;3.00;1.20;;;24.90;67.90;;;;;;222491;1261;25510;-60
2023/08/31 12:38:33;;;;;;;1.50;1.40;;;24.90;68.00;;;;;;222787;1264;23843;-63
2023/08/31 12:43:36;;;;;;;1.50;1.40;;;24.90;67.80;;;;;;222649;1254;24248;-60
2023/08/31 12:48:39;;;;;;;1.40;1.30;;;24.90;67.70;;;;;;222769;1267;24035;-61
2023/08/31 12:53:42;;;;;;;2.10;1.40;;;24.90;67.70;;;;;;222783;1267;24377;-60
2023/08/31 12:58:47;;;;;;;1.60;1.30;;;25.00;67.60;;;;;;222640;1266;22517;-60
2023/08/31 13:03:50;;;;;;;1.70;1.40;;;25.00;68.00;;;;;;222494;1264;22532;-59
2023/08/31 13:08:52;;;;;;;1.90;1.40;;;25.10;67.50;;;;;;222485;1257;24196;-60
2023/08/31 13:13:55;;;;;;;3.60;1.40;;;25.10;67.50;;;;;;222532;1268;24057;-60
2023/08/31 13:18:58;;;;;;;2.40;1.30;;;25.10;67.90;;;;;;222109;1258;24055;-60
2023/08/31 13:24:01;;;;;;;2.80;1.80;;;25.10;67.90;;;;;;222219;1261;22662;-59
2023/08/31 13:29:04;;;;;;;3.50;1.40;;;25.10;67.90;;;;;;222160;1263;22531;-59
2023/08/31 13:34:07;;;;;;;5.30;1.20;;;25.20;67.60;;;;;;222472;1261;23180;-61
2023/08/31 13:39:10;;;;;;;4.20;1.40;;;25.20;67.80;;;;;;222632;1264;23895;-60
2023/08/31 13:44:13;;;;;;;6.50;1.50;;;25.20;67.50;;;;;;222837;1268;24204;-60
2023/08/31 13:49:18;;;;;;;9.00;1.30;;;25.10;67.60;;;;;;222513;1260;23890;-58
2023/08/31 13:54:23;;;;;;;3.30;1.30;;;25.10;67.60;;;;;;222801;1260;22536;-58
2023/08/31 13:59:27;;;;;;;2.80;1.40;;;25.10;67.40;;;;;;222696;1260;22528;-58
2023/08/31 14:04:31;;;;;;;3.10;1.50;;;25.20;67.30;;;;;;222665;1268;22668;-60
2023/08/31 14:09:34;;;;;;;1.60;1.40;;;25.20;67.30;;;;;;222762;1266;24215;-58
2023/08/31 14:14:37;;;;;;;2.20;1.30;;;25.20;67.20;;;;;;222345;1266;24225;-59
2023/08/31 14:19:40;;;;;;;1.50;1.20;;;25.30;67.10;;;;;;222504;1268;24217;-59
2023/08/31 14:24:43;;;;;;;3.00;1.30;;;25.20;67.00;;;;;;222210;1261;22537;-57
2023/08/31 14:29:49;;;;;;;2.60;1.50;;;25.30;66.90;;;;;;222920;1266;22614;-59
2023/08/31 14:34:54;;;;;;;1.60;1.20;;;25.20;67.20;;;;;;222593;1254;25226;-58
2023/08/31 14:40:00;;;;;;;1.80;1.20;;;25.20;67.20;;;;;;222793;1266;23682;-59
2023/08/31 14:45:06;;;;;;;1.50;1.20;;;25.20;67.40;;;;;;222557;1268;22528;-58
2023/08/31 14:50:10;;;;;;;3.20;1.50;;;25.20;67.70;;;;;;222347;1267;24342;-58
2023/08/31 14:55:14;;;;;;;4.20;1.80;;;25.20;67.50;;;;;;222932;1268;25426;-58
2023/08/31 15:00:19;;;;;;;3.10;1.40;;;25.20;67.60;;;;;;222365;1254;22524;-62
2023/08/31 15:05:40;;;;;;;4.60;1.40;;;25.20;67.20;;;;;;222740;1264;22519;-59
2023/08/31 15:10:47;;;;;;;5.30;1.60;;;25.10;67.40;;;;;;222563;1260;22571;-49
2023/08/31 15:15:51;;;;;;;5.50;2.30;;;24.50;60.20;;;;;;222431;1263;22897;-51
2023/08/31 15:20:55;;;;;;;8.20;2.20;;;23.90;55.20;;;;;;222490;1263;24247;-51
2023/08/31 15:26:01;;;;;;;5.40;2.10;;;23.70;54.30;;;;;;222510;1266;22623;-55
2023/08/31 15:31:04;;;;;;;4.40;2.10;;;23.80;53.50;;;;;;222147;1266;25626;-55
2023/08/31 15:36:09;;;;;;;2.10;1.90;;;23.60;53.10;;;;;;223218;1251;22528;-53
2023/08/31 15:41:13;;;;;;;2.40;1.80;;;23.60;51.50;;;;;;222509;1264;22536;-50
2023/08/31 15:46:16;;;;;;;2.70;1.60;;;23.50;51.40;;;;;;222359;1254;22597;-51
2023/08/31 15:51:20;;;;;;;2.40;1.90;;;23.40;51.60;;;;;;222256;1268;23130;-50
2023/08/31 15:56:23;;;;;;;2.00;1.90;;;23.40;51.00;;;;;;222223;1265;26500;-50
2023/08/31 16:01:31;;;;;;;2.40;2.20;;;23.30;51.60;;;;;;222130;1263;22524;-52
2023/08/31 16:06:38;;;;;;;5.50;2.40;;;23.30;52.20;;;;;;222096;1260;22511;-47
2023/08/31 16:11:42;;;;;;;5.90;2.00;;;23.20;52.20;;;;;;222438;1268;24189;-46
2023/08/31 16:16:46;;;;;;;3.40;1.70;;;23.20;52.70;;;;;;222518;1266;23401;-50
2023/08/31 16:21:49;;;;;;;3.40;2.20;;;23.10;55.00;;;;;;222733;1263;24437;-49
2023/08/31 16:26:52;;;;;;;3.20;2.20;;;23.60;57.40;;;;;;222813;1266;22520;-48
2023/08/31 16:32:00;;;;;;;13.90;3.50;;;23.80;57.00;;;;;;222469;1263;22636;-49
2023/08/31 16:37:13;;;;;;;7.10;2.20;;;24.00;56.90;;;;;;222145;1254;25345;-52
2023/08/31 16:42:16;;;;;;;2.90;2.00;;;24.10;56.90;;;;;;222372;1266;22640;-53
2023/08/31 16:47:20;;;;;;;10.10;2.10;;;24.10;56.90;;;;;;222474;1266;24343;-53
2023/08/31 16:52:25;;;;;;;4.60;1.80;;;24.00;56.30;;;;;;223040;1263;23918;-52
2023/08/31 16:57:31;;;;;;;5.90;1.90;;;24.00;56.60;;;;;;222646;1266;22649;-52
2023/08/31 17:02:36;;;;;;;4.00;1.80;;;24.00;56.50;;;;;;223722;1260;22612;-49
2023/08/31 17:07:48;;;;;;;5.70;2.10;;;24.10;56.40;;;;;;222346;1262;22522;-51
2023/08/31 17:12:53;;;;;;;6.80;1.90;;;24.20;56.50;;;;;;222344;1263;22643;-52
2023/08/31 17:17:57;;;;;;;4.00;2.00;;;24.20;57.00;;;;;;222456;1268;22532;-53
2023/08/31 17:23:00;;;;;;;4.60;1.70;;;24.20;57.40;;;;;;222548;1261;22518;-51
2023/08/31 17:28:08;;;;;;;2.20;1.60;;;24.10;57.60;;;;;;222286;1265;22994;-51
2023/08/31 17:33:11;;;;;;;3.20;1.80;;;24.00;58.00;;;;;;222797;1268;22515;-53
2023/08/31 17:38:15;;;;;;;3.30;1.90;;;24.00;57.90;;;;;;222497;1262;22534;-49
2023/08/31 17:43:21;;;;;;;6.20;1.70;;;23.90;58.00;;;;;;222298;1266;22518;-52
2023/08/31 17:48:24;;;;;;;17.60;6.00;;;23.90;57.80;;;;;;222752;1266;22514;-51
2023/08/31 17:53:35;;;;;;;14.70;4.50;;;23.90;60.00;;;;;;222576;1268;25277;-51
2023/08/31 17:58:39;;;;;;;19.00;5.50;;;24.00;61.10;;;;;;222630;1263;22588;-52
2023/08/31 18:03:42;;;;;;;9.70;3.00;;;24.00;60.70;;;;;;221639;1259;22667;-52
2023/08/31 18:08:48;;;;;;;9.80;3.00;;;23.90;60.40;;;;;;221720;1265;22654;-50
2023/08/31 18:13:52;;;;;;;5.20;2.90;;;24.00;60.50;;;;;;221485;1266;22885;-48
2023/08/31 18:18:55;;;;;;;7.70;2.70;;;24.10;59.50;;;;;;221618;1266;22636;-48
2023/08/31 18:24:20;;;;;;;4.80;2.80;;;24.10;59.80;;;;;;221528;1269;25227;-48
2023/08/31 18:29:24;;;;;;;3.50;2.20;;;24.10;59.30;;;;;;221455;1270;22530;-49
2023/08/31 18:34:29;;;;;;;4.90;2.30;;;24.20;59.60;;;;;;221343;1259;25610;-52
2023/08/31 18:39:33;;;;;;;5.50;2.60;;;24.30;59.40;;;;;;221886;1263;22650;-49
2023/08/31 18:44:38;;;;;;;5.80;2.30;;;24.30;59.70;;;;;;222818;1261;22990;-50
2023/08/31 18:49:41;;;;;;;5.20;2.30;;;24.20;60.10;;;;;;222358;1264;23902;-47
2023/08/31 18:54:48;;;;;;;10.10;2.60;;;24.20;60.10;;;;;;222775;1264;22529;-49
2023/08/31 18:59:54;;;;;;;9.80;2.60;;;24.10;60.00;;;;;;222740;1263;22527;-49
2023/08/31 19:04:58;;;;;;;5.30;2.20;;;24.10;60.70;;;;;;222844;1263;22534;-48
2023/08/31 19:10:04;;;;;;;8.50;2.40;;;24.10;60.40;;;;;;222632;1256;22576;-51
2023/08/31 19:15:19;;;;;;;5.30;2.20;;;24.20;60.80;;;;;;222347;1253;22514;-50
2023/08/31 19:20:25;;;;;;;4.00;2.40;;;24.10;60.60;;;;;;222193;1260;23989;-49
2023/08/31 19:25:31;;;;;;;3.80;2.20;;;24.10;61.00;;;;;;222910;1256;22520;-51
2023/08/31 19:30:35;;;;;;;7.80;2.50;;;24.10;61.50;;;;;;222201;1266;22756;-46
2023/08/31 19:35:41;;;;;;;2.40;2.20;;;24.10;61.50;;;;;;222379;1268;25358;-52
2023/08/31 19:41:05;;;;;;;6.50;2.50;;;24.10;61.30;;;;;;222547;1256;22648;-50
2023/08/31 19:46:12;;;;;;;5.60;2.30;;;24.30;61.00;;;;;;221347;1266;22533;-48
2023/08/31 19:51:21;;;;;;;4.30;2.10;;;24.30;61.30;;;;;;221181;1266;22552;-51
2023/08/31 19:56:27;;;;;;;4.10;2.50;;;24.20;61.20;;;;;;221314;1267;24183;-49
2023/08/31 20:01:31;;;;;;;4.80;2.40;;;24.20;61.30;;;;;;221744;1269;24274;-48
2023/08/31 20:06:34;;;;;;;7.40;2.40;;;24.40;62.40;;;;;;221264;1266;24444;-48
2023/08/31 20:11:38;;;;;;;7.90;2.70;;;24.50;62.90;;;;;;221171;1260;25367;-47
2023/08/31 20:16:44;;;;;;;11.50;3.20;;;24.40;62.60;;;;;;221501;1258;22520;-47
2023/08/31 20:21:46;;;;;;;10.80;3.50;;;24.30;62.40;;;;;;221834;1261;26561;-58
2023/08/31 20:26:51;;;;;;;12.50;3.80;;;24.30;62.50;;;;;;222686;1266;25698;-57
2023/08/31 20:31:55;;;;;;;9.60;3.30;;;24.30;62.50;;;;;;222284;1266;22577;-59
2023/08/31 20:37:03;;;;;;;12.30;3.70;;;24.30;62.80;;;;;;222556;1266;22760;-55
2023/08/31 20:42:23;;;;;;;8.40;3.30;;;24.30;62.30;;;;;;222601;1262;22570;-57
2023/08/31 20:47:27;;;;;;;9.90;3.10;;;24.30;62.20;;;;;;222606;1256;25410;-58
2023/08/31 20:52:33;;;;;;;7.30;2.80;;;24.30;62.20;;;;;;222555;1255;24203;-56
2023/08/31 20:57:37;;;;;;;5.60;3.20;;;24.30;62.30;;;;;;222796;1263;22606;-59
2023/08/31 21:02:39;;;;;;;9.70;3.70;;;24.20;62.60;;;;;;222282;1268;24277;-59
2023/08/31 21:07:43;;;;;;;8.90;3.50;;;24.20;62.40;;;;;;223415;1266;22530;-60
2023/08/31 21:12:47;;;;;;;4.20;2.40;;;24.10;62.50;;;;;;222471;1266;26183;-58
2023/08/31 21:17:50;;;;;;;12.10;2.90;;;24.10;62.40;;;;;;222304;1268;22539;-59
2023/08/31 21:22:53;;;;;;;15.10;3.00;;;24.10;64.20;;;;;;222536;1263;22658;-60
2023/08/31 21:27:56;;;;;;;8.10;3.40;;;24.10;64.20;;;;;;222454;1263;24176;-60
2023/08/31 21:32:58;;;;;;;6.70;2.50;;;24.10;64.10;;;;;;222290;1253;24676;-59
2023/08/31 21:38:03;;;;;;;7.10;2.80;;;24.10;63.70;;;;;;222198;1266;22517;-59
2023/08/31 21:43:07;;;;;;;6.40;2.90;;;24.10;63.30;;;;;;222367;1244;22648;-59
2023/08/31 21:48:10;;;;;;;5.60;2.80;;;24.30;63.40;;;;;;222554;1263;22518;-59
2023/08/31 21:53:13;;;;;;;5.50;2.90;;;24.20;63.40;;;;;;222212;1261;25405;-59
2023/08/31 21:58:16;;;;;;;3.70;2.40;;;24.10;63.60;;;;;;222400;1268;22531;-60
2023/08/31 22:03:18;;;;;;;9.20;3.00;;;24.10;63.90;;;;;;222396;1266;22681;-60
2023/08/31 22:08:22;;;;;;;12.10;3.20;;;24.00;64.10;;;;;;222308;1259;24119;-60
2023/08/31 22:13:30;;;;;;;6.10;2.80;;;24.10;64.00;;;;;;222707;1257;24435;-60
2023/08/31 22:18:35;;;;;;;5.80;2.90;;;24.10;63.40;;;;;;222602;1254;24354;-61
2023/08/31 22:23:39;;;;;;;6.90;2.90;;;24.10;63.50;;;;;;222538;1259;23964;-61
2023/08/31 22:28:42;;;;;;;6.50;2.80;;;24.10;63.70;;;;;;222983;1256;22537;-61
2023/08/31 22:33:46;;;;;;;9.90;2.90;;;24.10;63.80;;;;;;222751;1254;22518;-61
2023/08/31 22:38:49;;;;;;;7.10;2.90;;;24.10;63.90;;;;;;222877;1263;25914;-61
2023/08/31 22:43:54;;;;;;;6.00;3.10;;;24.10;63.90;;;;;;222478;1260;23016;-61
2023/08/31 22:48:58;;;;;;;3.70;2.40;;;24.00;64.10;;;;;;222690;1260;25288;-61
2023/08/31 22:54:02;;;;;;;5.10;2.80;;;24.10;64.20;;;;;;222435;1261;22663;-60
2023/08/31 22:59:05;;;;;;;4.40;2.80;;;24.00;64.20;;;;;;222395;1266;24215;-60
2023/08/31 23:04:08;;;;;;;7.10;2.90;;;24.10;64.10;;;;;;222434;1268;22521;-60
2023/08/31 23:09:12;;;;;;;3.50;2.20;;;24.10;64.40;;;;;;222385;1260;25376;-63
2023/08/31 23:14:15;;;;;;;4.70;2.60;;;24.10;63.80;;;;;;222999;1253;22633;-60
2023/08/31 23:19:18;;;;;;;9.80;2.40;;;24.00;64.40;;;;;;222764;1264;24432;-59
2023/08/31 23:24:21;;;;;;;9.60;2.90;;;23.90;64.50;;;;;;223276;1256;25048;-54
2023/08/31 23:29:24;;;;;;;4.80;2.10;;;24.00;64.40;;;;;;222463;1263;25202;-52
2023/08/31 23:34:27;;;;;;;3.80;2.40;;;24.10;64.40;;;;;;222240;1266;22520;-56
2023/08/31 23:39:30;;;;;;;2.50;2.20;;;24.00;64.40;;;;;;222229;1266;22552;-51
2023/08/31 23:44:33;;;;;;;3.90;2.60;;;23.90;64.30;;;;;;222256;1253;23600;-49
2023/08/31 23:49:36;;;;;;;4.50;2.60;;;23.90;64.40;;;;;;222355;1268;22570;-52
2023/08/31 23:54:40;;;;;;;3.90;2.20;;;23.90;64.30;;;;;;222452;1266;24171;-53
2023/08/31 23:59:43;;;;;;;5.60;1.80;;;24.00;64.10;;;;;;222813;1263;22567;-52
